Time;durP1;ratioP1;P1;durP2;ratioP2;P2;SDS_P1;SDS_P2;PMS_P1;PMS_P2;Temp;Humidity;BMP_temperature;BMP_pressure;BME280_temperature;BME280_humidity;BME280_pressure;Samples;Min_cycle;Max_cycle;Signal;HPM_P1;HPM_P2
2024/02/11 00:02:05;;;;;;;23.67;12.57;;;9.10;99.90;;;;;;4936275;29;20051;-91
2024/02/11 00:04:32;;;;;;;22.60;12.93;;;9.10;99.90;;;;;;4937107;29;20091;-91
2024/02/11 00:06:59;;;;;;;21.45;12.80;;;9.10;99.90;;;;;;4924964;29;20135;-92
2024/02/11 00:09:27;;;;;;;19.63;12.27;;;9.10;99.90;;;;;;4937740;29;20126;-92
2024/02/11 00:11:54;;;;;;;21.70;12.25;;;9.10;99.90;;;;;;4937746;29;20413;-93
2024/02/11 00:14:21;;;;;;;20.83;12.48;;;9.10;99.90;;;;;;4929998;29;20042;-92
2024/02/11 00:16:48;;;;;;;20.70;12.38;;;9.10;99.90;;;;;;4938679;29;20122;-93
2024/02/11 00:19:14;;;;;;;20.63;11.75;;;9.10;99.90;;;;;;4937583;29;20035;-92
2024/02/11 00:21:42;;;;;;;23.95;12.65;;;9.10;99.90;;;;;;4937257;29;20039;-93
2024/02/11 00:24:09;;;;;;;24.58;13.23;;;9.00;99.90;;;;;;4937618;29;20039;-92
2024/02/11 00:26:35;;;;;;;23.98;13.57;;;9.00;99.90;;;;;;4940605;29;20047;-92
2024/02/11 00:29:02;;;;;;;20.25;13.00;;;9.10;99.90;;;;;;4937582;29;20534;-93
2024/02/11 00:31:29;;;;;;;26.95;14.85;;;9.00;99.90;;;;;;4934821;29;20056;-93
2024/02/11 00:33:56;;;;;;;29.05;15.93;;;9.10;99.90;;;;;;4928276;29;20051;-92
2024/02/11 00:36:23;;;;;;;29.00;15.57;;;9.00;99.90;;;;;;4949524;29;20071;-93
2024/02/11 00:38:53;;;;;;;32.75;17.08;;;9.20;99.90;;;;;;4928850;29;20046;-93
2024/02/11 00:41:20;;;;;;;32.38;17.45;;;9.20;99.90;;;;;;4953073;29;20112;-93
2024/02/11 00:43:50;;;;;;;31.35;16.25;;;9.40;99.90;;;;;;4944705;29;20063;-92
2024/02/11 00:46:16;;;;;;;30.60;15.20;;;9.20;99.90;;;;;;4931383;29;20036;-92
2024/02/11 00:48:45;;;;;;;35.08;15.98;;;9.10;99.90;;;;;;4918495;29;20046;-92
2024/02/11 00:51:12;;;;;;;36.22;17.05;;;9.00;99.90;;;;;;4937008;29;20060;-93
2024/02/11 00:53:39;;;;;;;32.83;16.48;;;9.00;99.90;;;;;;4937227;29;20840;-93
2024/02/11 00:56:08;;;;;;;35.25;16.73;;;8.90;99.90;;;;;;4937211;29;20123;-94
2024/02/11 00:58:34;;;;;;;35.50;16.23;;;8.90;99.90;;;;;;4936979;29;20031;-93
2024/02/11 01:01:04;;;;;;;34.50;16.52;;;8.90;99.90;;;;;;4942480;29;20095;-93
2024/02/11 01:03:32;;;;;;;35.78;16.48;;;8.90;99.90;;;;;;4936368;29;20048;-93
2024/02/11 01:05:58;;;;;;;37.05;16.50;;;8.90;99.90;;;;;;4927862;29;20032;-92
2024/02/11 01:08:25;;;;;;;34.08;16.30;;;8.90;99.90;;;;;;4937159;29;20040;-92
2024/02/11 01:10:52;;;;;;;39.60;16.58;;;9.40;99.90;;;;;;4937418;29;20047;-92
2024/02/11 01:13:19;;;;;;;33.78;16.40;;;8.80;99.90;;;;;;4936844;29;20043;-93
2024/02/11 01:15:46;;;;;;;37.17;16.67;;;8.70;99.90;;;;;;4950190;29;20550;-93
2024/02/11 01:18:13;;;;;;;33.33;15.73;;;8.80;99.90;;;;;;4934795;29;20107;-94
2024/02/11 01:20:42;;;;;;;34.08;16.65;;;8.70;99.90;;;;;;4940820;29;20028;-92
2024/02/11 01:23:09;;;;;;;35.17;15.73;;;8.80;99.90;;;;;;4940387;29;20044;-93
2024/02/11 01:25:35;;;;;;;33.28;15.35;;;8.70;99.90;;;;;;4942042;29;20043;-93
2024/02/11 01:28:02;;;;;;;31.85;15.27;;;8.70;99.90;;;;;;4940922;29;20043;-93
2024/02/11 01:30:29;;;;;;;33.65;15.50;;;8.70;99.90;;;;;;4952874;29;20063;-93
2024/02/11 01:32:57;;;;;;;35.92;15.25;;;9.00;99.90;;;;;;4943519;29;20047;-92
2024/02/11 01:35:24;;;;;;;34.20;15.43;;;8.60;99.90;;;;;;4946568;29;20710;-93
2024/02/11 01:37:51;;;;;;;35.63;15.88;;;8.80;99.90;;;;;;4937442;29;20046;-93
2024/02/11 01:40:19;;;;;;;38.83;16.33;;;8.70;99.90;;;;;;4931147;29;20040;-92
2024/02/11 01:42:47;;;;;;;35.92;16.05;;;8.60;99.90;;;;;;4940150;29;20094;-92
2024/02/11 01:45:15;;;;;;;34.38;15.40;;;8.60;99.90;;;;;;4940742;29;20091;-93
2024/02/11 01:47:44;;;;;;;32.92;15.35;;;8.50;99.90;;;;;;4936928;29;20123;-92
2024/02/11 01:50:19;;;;;;;36.95;15.38;;;8.50;99.90;;;;;;4948742;29;20173;-92
2024/02/11 01:52:47;;;;;;;36.45;16.42;;;8.50;99.90;;;;;;4933373;29;20501;-92
2024/02/11 01:55:18;;;;;;;37.83;16.33;;;8.50;99.90;;;;;;4934593;29;20061;-92
2024/02/11 01:57:45;;;;;;;34.63;16.15;;;8.60;99.90;;;;;;4940220;29;20039;-94
2024/02/11 02:00:12;;;;;;;38.08;15.52;;;8.40;99.90;;;;;;4943426;29;20446;-93
2024/02/11 02:02:40;;;;;;;35.80;15.77;;;8.40;99.90;;;;;;4931971;29;20054;-92
2024/02/11 02:05:07;;;;;;;38.40;15.77;;;8.70;99.90;;;;;;4951828;29;20058;-93
2024/02/11 02:07:34;;;;;;;36.85;15.80;;;8.40;99.90;;;;;;4939489;29;20039;-93
2024/02/11 02:10:01;;;;;;;35.03;14.68;;;9.30;99.90;;;;;;4940063;29;20043;-93
2024/02/11 02:12:27;;;;;;;44.17;15.68;;;8.40;99.90;;;;;;4939992;29;20043;-93
2024/02/11 02:14:54;;;;;;;34.60;14.52;;;8.40;99.90;;;;;;4940290;29;20043;-93
2024/02/11 02:17:21;;;;;;;35.38;14.93;;;8.40;99.90;;;;;;4944519;29;20752;-92
2024/02/11 02:19:47;;;;;;;34.20;15.27;;;8.40;99.90;;;;;;4933686;29;20031;-93
2024/02/11 02:22:14;;;;;;;40.47;15.38;;;8.40;99.90;;;;;;4936364;29;20047;-93
2024/02/11 02:24:41;;;;;;;40.47;15.27;;;8.40;99.90;;;;;;4930976;29;20576;-93
2024/02/11 02:27:07;;;;;;;35.10;15.38;;;8.40;99.90;;;;;;4939012;29;20045;-93
2024/02/11 02:29:34;;;;;;;32.90;14.85;;;8.80;99.90;;;;;;4939399;29;20126;-93
2024/02/11 02:32:01;;;;;;;32.95;14.27;;;8.80;99.90;;;;;;4939795;29;20058;-92
2024/02/11 02:34:28;;;;;;;37.10;14.13;;;8.30;99.90;;;;;;4939972;29;20066;-93
2024/02/11 02:36:55;;;;;;;38.55;13.65;;;8.40;99.90;;;;;;4939632;29;20032;-92
2024/02/11 02:39:23;;;;;;;35.65;13.85;;;8.30;99.90;;;;;;4937801;29;20559;-92
2024/02/11 02:41:50;;;;;;;41.67;14.68;;;8.40;99.90;;;;;;4945347;29;20051;-92
2024/02/11 02:44:17;;;;;;;43.17;13.80;;;8.30;99.90;;;;;;4955220;29;20098;-92
2024/02/11 02:46:43;;;;;;;34.42;13.65;;;8.30;99.90;;;;;;4939185;29;20091;-92
2024/02/11 02:49:12;;;;;;;32.55;13.45;;;9.10;99.90;;;;;;4939584;29;20044;-92
2024/02/11 02:51:41;;;;;;;31.77;13.02;;;8.20;99.90;;;;;;4939203;29;20051;-93
2024/02/11 02:54:09;;;;;;;32.42;12.82;;;8.40;99.90;;;;;;4954417;29;20040;-92
2024/02/11 02:56:36;;;;;;;32.35;13.25;;;8.20;99.90;;;;;;4944607;29;20036;-92
2024/02/11 02:59:08;;;;;;;31.17;12.50;;;8.50;99.90;;;;;;4937135;29;20051;-93
2024/02/11 03:01:38;;;;;;;30.80;11.70;;;8.20;99.90;;;;;;4927514;29;20044;-92
2024/02/11 03:04:08;;;;;;;30.63;11.88;;;8.10;99.90;;;;;;4926614;29;20043;-92
2024/02/11 03:06:36;;;;;;;35.20;12.82;;;8.60;99.90;;;;;;4931641;29;20418;-92
2024/02/11 03:09:03;;;;;;;30.33;12.65;;;8.80;99.90;;;;;;4936703;29;20047;-92
2024/02/11 03:11:30;;;;;;;44.03;12.35;;;8.10;99.90;;;;;;4938761;29;20105;-91
2024/02/11 03:13:57;;;;;;;31.60;12.40;;;8.10;99.90;;;;;;4945310;29;20130;-92
2024/02/11 03:16:23;;;;;;;26.58;12.38;;;8.10;99.90;;;;;;4939223;29;20044;-92
2024/02/11 03:18:50;;;;;;;30.95;11.88;;;8.40;99.90;;;;;;4938271;29;20070;-92
2024/02/11 03:21:17;;;;;;;35.47;11.82;;;8.10;99.90;;;;;;4927104;29;20437;-91
2024/02/11 03:23:44;;;;;;;32.42;12.88;;;8.10;99.90;;;;;;4937362;29;20047;-93
2024/02/11 03:26:11;;;;;;;30.98;11.95;;;8.40;99.90;;;;;;4935499;29;20040;-92
2024/02/11 03:28:38;;;;;;;37.80;13.00;;;8.00;99.90;;;;;;4939262;29;20064;-93
2024/02/11 03:31:08;;;;;;;39.83;13.98;;;8.10;99.90;;;;;;4938285;29;20036;-91
2024/02/11 03:33:36;;;;;;;36.70;13.05;;;8.00;99.90;;;;;;4942517;29;20122;-92
2024/02/11 03:36:03;;;;;;;41.83;13.88;;;8.00;99.90;;;;;;4953925;29;20048;-91
2024/02/11 03:38:30;;;;;;;39.35;13.68;;;7.90;99.90;;;;;;4926824;29;20079;-93
2024/02/11 03:40:56;;;;;;;39.35;14.85;;;7.90;99.90;;;;;;4936196;29;20035;-93
2024/02/11 03:43:23;;;;;;;39.50;15.45;;;7.90;99.90;;;;;;4928179;29;20132;-93
2024/02/11 03:45:50;;;;;;;40.25;15.15;;;7.90;99.90;;;;;;4938505;29;20054;-92
2024/02/11 03:48:18;;;;;;;47.67;15.38;;;7.80;99.90;;;;;;4936698;29;20465;-93
2024/02/11 03:50:48;;;;;;;40.75;15.13;;;7.80;99.90;;;;;;4932311;29;20047;-93
2024/02/11 03:53:20;;;;;;;43.88;15.30;;;7.80;99.90;;;;;;4932274;29;20485;-93
2024/02/11 03:55:47;;;;;;;40.22;15.18;;;8.40;99.90;;;;;;4939536;29;20063;-92
2024/02/11 03:58:14;;;;;;;44.10;15.45;;;7.70;99.90;;;;;;4944118;29;20133;-93
2024/02/11 04:00:44;;;;;;;42.50;14.95;;;7.70;99.90;;;;;;4937845;29;20114;-92
2024/02/11 04:03:16;;;;;;;38.22;15.10;;;8.90;99.90;;;;;;4937962;29;20044;-92
2024/02/11 04:05:43;;;;;;;52.58;14.75;;;7.80;99.90;;;;;;4936629;29;20084;-91
2024/02/11 04:08:11;;;;;;;48.47;15.00;;;7.80;99.90;;;;;;4935296;29;20762;-93
2024/02/11 04:10:39;;;;;;;38.45;14.05;;;8.10;99.90;;;;;;4954468;29;20042;-93
2024/02/11 04:13:10;;;;;;;50.80;14.80;;;7.80;99.90;;;;;;4936577;29;20180;-93
2024/02/11 04:15:37;;;;;;;36.15;13.52;;;7.70;99.90;;;;;;4934644;29;20042;-93
2024/02/11 04:18:10;;;;;;;35.22;14.70;;;7.70;99.90;;;;;;4937771;29;20068;-93
2024/02/11 04:20:36;;;;;;;39.25;14.45;;;7.70;99.90;;;;;;4937540;29;20032;-92
2024/02/11 04:23:04;;;;;;;37.00;14.52;;;7.70;99.90;;;;;;4937251;29;20424;-92
2024/02/11 04:25:35;;;;;;;34.80;13.77;;;7.70;99.90;;;;;;4936741;29;20094;-89
2024/02/11 04:28:09;;;;;;;37.38;14.35;;;8.00;99.90;;;;;;4936959;29;20056;-91
2024/02/11 04:30:41;;;;;;;37.22;14.07;;;7.60;99.90;;;;;;4928700;29;20055;-92
2024/02/11 04:33:13;;;;;;;42.40;14.45;;;8.50;99.90;;;;;;4951397;29;20051;-93
2024/02/11 04:35:40;;;;;;;40.33;14.20;;;8.30;99.90;;;;;;4937446;29;20063;-93
2024/02/11 04:38:12;;;;;;;40.65;14.65;;;8.00;99.90;;;;;;4937539;29;20035;-93
2024/02/11 04:40:39;;;;;;;38.50;14.27;;;7.60;99.90;;;;;;4934974;29;20039;-93
2024/02/11 04:43:06;;;;;;;43.38;15.23;;;8.10;99.90;;;;;;4952941;29;20047;-93
2024/02/11 04:45:33;;;;;;;43.00;14.23;;;7.60;99.90;;;;;;4937544;29;20043;-92
2024/02/11 04:48:03;;;;;;;45.15;14.98;;;7.60;99.90;;;;;;4937462;29;20449;-92
2024/02/11 04:50:31;;;;;;;39.45;15.25;;;8.00;99.90;;;;;;4943312;29;20047;-91
2024/02/11 04:53:01;;;;;;;45.33;15.05;;;8.00;99.90;;;;;;4941400;29;20110;-93
2024/02/11 04:55:38;;;;;;;44.10;15.52;;;7.50;99.90;;;;;;4940749;29;20051;-93
2024/02/11 04:58:14;;;;;;;48.20;15.65;;;7.80;99.90;;;;;;4929063;29;20075;-93
2024/02/11 05:00:42;;;;;;;42.30;16.08;;;8.00;99.90;;;;;;4939356;29;20040;-92
2024/02/11 05:03:10;;;;;;;46.15;15.60;;;7.50;99.90;;;;;;4930474;29;20043;-92
2024/02/11 05:05:41;;;;;;;47.35;16.13;;;8.10;99.90;;;;;;4941194;29;20066;-93
2024/02/11 05:08:10;;;;;;;35.38;14.20;;;7.60;99.90;;;;;;4941201;29;20179;-93
2024/02/11 05:10:40;;;;;;;46.97;14.98;;;7.70;99.90;;;;;;4937096;29;20040;-93
2024/02/11 05:13:08;;;;;;;44.78;14.90;;;7.50;99.90;;;;;;4948096;29;20042;-92
2024/02/11 05:15:42;;;;;;;45.38;15.40;;;7.70;99.90;;;;;;4941017;29;20123;-91
2024/02/11 05:18:14;;;;;;;41.50;14.82;;;7.50;99.90;;;;;;4941080;29;20035;-92
2024/02/11 05:20:41;;;;;;;48.33;15.35;;;7.90;99.90;;;;;;4929718;29;20493;-93
2024/02/11 05:23:09;;;;;;;48.33;16.48;;;7.50;99.90;;;;;;4940898;29;20046;-92
2024/02/11 05:25:43;;;;;;;40.50;15.35;;;7.50;99.90;;;;;;4941310;29;20043;-93
2024/02/11 05:28:15;;;;;;;46.00;15.23;;;7.40;99.90;;;;;;4944570;29;20473;-92
2024/02/11 05:30:44;;;;;;;43.05;15.52;;;7.60;99.90;;;;;;4931290;29;20059;-93
2024/02/11 05:33:12;;;;;;;42.65;14.68;;;7.50;99.90;;;;;;4933597;29;20040;-93
2024/02/11 05:35:39;;;;;;;43.05;15.65;;;8.00;99.90;;;;;;4932082;29;20381;-92
2024/02/11 05:38:08;;;;;;;46.42;15.35;;;8.00;99.90;;;;;;4940845;29;20051;-93
2024/02/11 05:40:37;;;;;;;42.95;14.45;;;8.00;99.90;;;;;;4940677;29;20087;-92
2024/02/11 05:43:06;;;;;;;46.85;15.52;;;7.50;99.90;;;;;;4940257;29;20044;-93
2024/02/11 05:45:33;;;;;;;52.55;16.15;;;7.50;99.90;;;;;;4955601;29;20048;-92
2024/02/11 05:47:59;;;;;;;49.40;16.33;;;8.50;99.90;;;;;;4928764;29;20054;-93
2024/02/11 05:50:26;;;;;;;46.08;16.48;;;7.70;99.90;;;;;;4940262;29;20708;-93
2024/02/11 05:52:54;;;;;;;47.85;15.90;;;7.50;99.90;;;;;;4940560;29;20051;-93
2024/02/11 05:55:21;;;;;;;47.38;15.75;;;7.50;99.90;;;;;;4940533;29;20063;-93
2024/02/11 05:57:52;;;;;;;62.47;17.40;;;7.40;99.90;;;;;;4940418;29;20047;-93
2024/02/11 06:00:24;;;;;;;60.08;17.55;;;7.40;99.90;;;;;;4940438;29;20067;-93
2024/02/11 06:02:53;;;;;;;49.17;15.18;;;7.40;99.90;;;;;;4939171;29;20036;-92
2024/02/11 06:05:21;;;;;;;51.47;16.05;;;7.40;99.90;;;;;;4952730;29;20494;-91
2024/02/11 06:07:49;;;;;;;49.47;16.33;;;7.40;99.90;;;;;;4940102;29;20666;-92
2024/02/11 06:10:20;;;;;;;45.05;15.63;;;7.50;99.90;;;;;;4941200;29;20039;-92
2024/02/11 06:12:47;;;;;;;47.33;15.57;;;7.50;99.90;;;;;;4939854;29;20055;-93
2024/02/11 06:15:16;;;;;;;49.25;16.25;;;7.60;99.90;;;;;;4939950;29;20054;-92
2024/02/11 06:17:43;;;;;;;49.10;16.75;;;7.50;99.90;;;;;;4955593;29;20036;-93
2024/02/11 06:20:13;;;;;;;51.58;16.63;;;8.20;99.90;;;;;;4939607;29;20098;-93
2024/02/11 06:22:40;;;;;;;53.83;16.15;;;7.70;99.90;;;;;;4940035;29;20039;-93
2024/02/11 06:25:08;;;;;;;48.67;16.05;;;7.40;99.90;;;;;;4935939;29;20131;-93
2024/02/11 06:27:38;;;;;;;51.60;16.13;;;7.50;99.90;;;;;;4931310;29;20094;-92
2024/02/11 06:30:12;;;;;;;48.88;15.25;;;7.40;99.90;;;;;;4939487;29;20143;-90
2024/02/11 06:32:44;;;;;;;48.05;16.90;;;7.40;99.90;;;;;;4939415;29;20043;-93
2024/02/11 06:35:10;;;;;;;42.03;16.00;;;7.40;99.90;;;;;;4927319;29;20034;-92
2024/02/11 06:37:41;;;;;;;47.15;15.60;;;7.80;99.90;;;;;;4939610;29;20043;-92
2024/02/11 06:40:14;;;;;;;50.28;14.77;;;7.50;99.90;;;;;;4955116;29;20039;-92
2024/02/11 06:42:42;;;;;;;45.97;16.45;;;7.50;99.90;;;;;;4939207;29;20043;-92
2024/02/11 06:45:12;;;;;;;47.55;15.30;;;7.40;99.90;;;;;;4932798;29;20036;-93
2024/02/11 06:47:40;;;;;;;45.15;14.55;;;7.40;99.90;;;;;;4936125;29;20044;-93
2024/02/11 06:50:18;;;;;;;49.47;14.68;;;7.50;99.90;;;;;;4933523;29;20046;-92
2024/02/11 06:52:48;;;;;;;42.08;15.43;;;7.40;99.90;;;;;;4939251;29;20126;-93
2024/02/11 06:55:18;;;;;;;46.17;14.50;;;7.70;99.90;;;;;;4942831;29;20553;-93
2024/02/11 06:57:45;;;;;;;44.22;15.15;;;7.70;99.90;;;;;;4939408;29;20087;-93
2024/02/11 07:00:14;;;;;;;40.70;14.73;;;7.80;99.90;;;;;;4938919;29;20046;-93
2024/02/11 07:02:41;;;;;;;49.58;15.43;;;7.50;99.90;;;;;;4946524;29;20039;-92
2024/02/11 07:05:10;;;;;;;45.58;15.93;;;7.40;99.90;;;;;;4942528;29;20046;-93
2024/02/11 07:07:37;;;;;;;50.97;15.13;;;7.40;99.90;;;;;;4939234;29;20050;-92
2024/02/11 07:10:06;;;;;;;45.15;14.90;;;7.40;99.90;;;;;;4933640;29;20050;-93
2024/02/11 07:12:33;;;;;;;41.95;15.43;;;7.40;99.90;;;;;;4954493;29;20055;-92
2024/02/11 07:15:00;;;;;;;48.40;14.02;;;7.40;99.90;;;;;;4954245;29;20408;-92
2024/02/11 07:17:30;;;;;;;53.03;15.43;;;7.50;99.90;;;;;;4919690;29;20406;-93
2024/02/11 07:19:57;;;;;;;49.45;14.25;;;7.60;99.90;;;;;;4930554;29;20094;-92
2024/02/11 07:22:25;;;;;;;44.42;14.10;;;7.40;99.90;;;;;;4936810;29;20051;-93
2024/02/11 07:24:52;;;;;;;47.83;14.88;;;8.20;99.90;;;;;;4926762;29;20091;-92
2024/02/11 07:27:19;;;;;;;51.40;14.48;;;7.70;99.90;;;;;;4936148;29;20040;-93
2024/02/11 07:29:46;;;;;;;38.67;14.02;;;7.40;99.90;;;;;;4949694;29;20114;-93
2024/02/11 07:32:13;;;;;;;47.22;14.50;;;7.40;99.90;;;;;;4934689;29;20071;-92
2024/02/11 07:34:39;;;;;;;37.17;14.18;;;7.60;99.90;;;;;;4952854;29;20115;-92
2024/02/11 07:37:06;;;;;;;41.67;14.52;;;7.40;99.90;;;;;;4938405;29;20059;-91
2024/02/11 07:39:33;;;;;;;47.42;14.23;;;7.80;99.90;;;;;;4937529;29;20027;-92
2024/02/11 07:42:00;;;;;;;43.55;13.73;;;7.40;99.90;;;;;;4951095;29;20560;-94
2024/02/11 07:44:27;;;;;;;46.92;14.10;;;8.30;99.90;;;;;;4933387;29;20044;-90
2024/02/11 07:46:53;;;;;;;42.58;13.85;;;8.00;99.90;;;;;;4933252;29;20071;-92
2024/02/11 07:49:21;;;;;;;52.80;14.63;;;7.90;99.90;;;;;;4937656;29;20047;-93
2024/02/11 07:51:50;;;;;;;44.33;14.55;;;7.40;99.90;;;;;;4953201;29;20685;-92
2024/02/11 07:54:20;;;;;;;39.00;12.70;;;7.60;99.90;;;;;;4938095;29;20050;-91
2024/02/11 07:56:49;;;;;;;43.15;14.18;;;7.80;99.90;;;;;;4953128;29;20457;-93
2024/02/11 07:59:16;;;;;;;49.53;13.68;;;7.90;99.90;;;;;;4927708;29;20400;-92
2024/02/11 08:01:42;;;;;;;42.30;13.35;;;7.50;99.90;;;;;;4937497;29;20040;-92
2024/02/11 08:04:14;;;;;;;39.63;13.27;;;7.50;99.90;;;;;;4937045;29;20544;-92
2024/02/11 08:06:41;;;;;;;39.30;13.15;;;7.50;99.90;;;;;;4937201;29;20405;-91
2024/02/11 08:09:09;;;;;;;38.67;13.10;;;7.50;99.90;;;;;;4948413;29;20036;-89
2024/02/11 08:11:36;;;;;;;36.75;13.85;;;8.00;99.90;;;;;;4937220;29;20039;-92
2024/02/11 08:14:03;;;;;;;38.97;12.77;;;8.10;99.90;;;;;;4936734;29;20497;-91
2024/02/11 08:16:30;;;;;;;35.45;12.45;;;8.00;99.90;;;;;;4937148;29;20039;-92
2024/02/11 08:18:57;;;;;;;40.25;13.13;;;7.50;99.90;;;;;;4937360;29;20051;-91
2024/02/11 08:21:25;;;;;;;38.42;13.10;;;7.50;99.90;;;;;;4936728;29;20055;-92
2024/02/11 08:23:51;;;;;;;38.97;12.23;;;8.00;99.90;;;;;;4935522;29;20038;-92
2024/02/11 08:26:20;;;;;;;34.92;12.07;;;7.50;99.90;;;;;;4943883;29;20044;-92
2024/02/11 08:28:46;;;;;;;35.08;13.10;;;7.50;99.90;;;;;;4925073;29;20056;-92
2024/02/11 08:31:13;;;;;;;34.28;12.93;;;8.30;99.90;;;;;;4940667;29;20040;-91
2024/02/11 08:33:44;;;;;;;35.30;13.35;;;8.30;99.90;;;;;;4949765;29;20040;-92
2024/02/11 08:36:12;;;;;;;41.55;12.38;;;7.90;99.90;;;;;;4934149;29;20035;-92
2024/02/11 08:38:39;;;;;;;40.33;13.82;;;7.50;99.90;;;;;;4937346;29;20083;-91
2024/02/11 08:41:06;;;;;;;34.63;12.95;;;7.60;99.90;;;;;;4953113;29;20506;-91
2024/02/11 08:43:33;;;;;;;34.40;12.25;;;7.60;99.90;;;;;;4937065;29;20039;-92
2024/02/11 08:46:04;;;;;;;38.75;13.40;;;7.60;99.90;;;;;;4931155;29;20044;-91
2024/02/11 08:48:34;;;;;;;34.63;12.88;;;8.20;99.90;;;;;;4937404;29;20075;-90
2024/02/11 08:51:01;;;;;;;36.03;12.75;;;7.60;99.90;;;;;;4925329;29;20126;-89
2024/02/11 08:53:32;;;;;;;35.00;12.43;;;7.70;99.90;;;;;;4953199;29;20052;-92
2024/02/11 08:55:59;;;;;;;33.72;13.65;;;7.90;99.90;;;;;;4933591;29;20032;-91
2024/02/11 08:58:27;;;;;;;35.22;12.85;;;7.60;99.90;;;;;;4936023;29;20035;-91
2024/02/11 09:00:54;;;;;;;38.17;13.38;;;8.00;99.90;;;;;;4934266;29;20100;-91
2024/02/11 09:03:21;;;;;;;38.78;13.10;;;7.80;99.90;;;;;;4936667;29;20086;-90
2024/02/11 09:05:47;;;;;;;42.78;13.80;;;7.60;99.90;;;;;;4939027;29;20047;-92
2024/02/11 09:08:15;;;;;;;33.72;12.43;;;7.70;99.90;;;;;;4952830;29;20071;-91
2024/02/11 09:10:43;;;;;;;40.78;13.35;;;8.20;99.90;;;;;;4936513;29;20127;-91
2024/02/11 09:13:10;;;;;;;36.72;12.95;;;7.70;99.90;;;;;;4936385;29;20390;-93
2024/02/11 09:15:37;;;;;;;37.58;12.90;;;8.20;99.90;;;;;;4941569;29;20419;-91
2024/02/11 09:18:05;;;;;;;42.20;13.63;;;7.80;99.90;;;;;;4935919;29;20044;-91
2024/02/11 09:20:35;;;;;;;46.95;13.98;;;7.70;99.90;;;;;;4937131;29;20043;-90
2024/02/11 09:23:03;;;;;;;40.72;12.90;;;8.60;99.90;;;;;;4927439;29;20043;-90
2024/02/11 09:25:30;;;;;;;42.17;13.82;;;7.70;99.90;;;;;;4924931;29;20043;-91
2024/02/11 09:27:58;;;;;;;44.75;14.48;;;7.80;99.90;;;;;;4936997;29;20074;-90
2024/02/11 09:30:25;;;;;;;37.58;13.82;;;7.70;99.90;;;;;;4936061;29;20082;-91
2024/02/11 09:32:51;;;;;;;36.28;13.90;;;8.10;99.90;;;;;;4936688;29;20054;-91
2024/02/11 09:35:20;;;;;;;43.83;14.13;;;7.90;99.90;;;;;;4953436;29;20119;-91
2024/02/11 09:37:48;;;;;;;43.45;14.70;;;8.40;99.90;;;;;;4951569;29;20046;-90
2024/02/11 09:40:15;;;;;;;48.08;14.80;;;8.40;99.90;;;;;;4948145;29;20047;-91
2024/02/11 09:42:45;;;;;;;43.10;13.73;;;7.80;99.90;;;;;;4940186;29;20040;-91
2024/02/11 09:45:16;;;;;;;41.40;14.27;;;8.30;99.90;;;;;;4934466;29;20047;-90
2024/02/11 09:47:49;;;;;;;47.38;14.00;;;7.90;99.90;;;;;;4944159;29;20054;-90
2024/02/11 09:50:18;;;;;;;44.03;14.52;;;7.90;99.90;;;;;;4937265;29;20039;-92
2024/02/11 09:52:46;;;;;;;45.33;13.93;;;8.20;99.90;;;;;;4925980;29;20127;-92
2024/02/11 09:55:15;;;;;;;47.85;15.15;;;7.90;99.90;;;;;;4939315;29;20047;-90
2024/02/11 09:57:42;;;;;;;48.17;15.23;;;8.00;99.90;;;;;;4939995;29;20040;-90
2024/02/11 10:00:09;;;;;;;39.08;14.20;;;8.00;99.90;;;;;;4930255;29;20036;-90
2024/02/11 10:02:38;;;;;;;44.85;15.63;;;7.90;99.90;;;;;;4932746;29;20043;-91
2024/02/11 10:05:09;;;;;;;43.28;14.63;;;8.00;99.90;;;;;;4956176;29;20040;-89
2024/02/11 10:07:43;;;;;;;45.78;15.00;;;8.00;99.90;;;;;;4939886;29;20040;-90
2024/02/11 10:10:14;;;;;;;48.92;14.50;;;8.50;99.90;;;;;;4939774;29;20046;-90
2024/02/11 10:12:41;;;;;;;42.78;15.32;;;8.00;99.90;;;;;;4933886;29;20043;-90
2024/02/11 10:15:16;;;;;;;51.83;15.73;;;8.10;99.90;;;;;;4945602;29;20043;-89
2024/02/11 10:17:44;;;;;;;56.92;15.63;;;8.50;99.90;;;;;;4939456;29;20071;-92
2024/02/11 10:20:12;;;;;;;49.13;15.13;;;8.10;99.90;;;;;;4939561;29;20050;-91
2024/02/11 10:22:39;;;;;;;51.45;15.23;;;8.10;99.90;;;;;;4938966;29;20035;-91
2024/02/11 10:25:09;;;;;;;52.75;16.17;;;8.20;99.90;;;;;;4937032;29;20047;-90
2024/02/11 10:27:36;;;;;;;51.65;16.77;;;8.20;99.90;;;;;;4938908;29;20127;-87
2024/02/11 10:30:09;;;;;;;48.97;16.58;;;8.90;99.90;;;;;;4952500;29;20126;-88
2024/02/11 10:32:36;;;;;;;47.15;16.02;;;8.20;99.90;;;;;;4945907;29;20039;-90
2024/02/11 10:35:04;;;;;;;47.03;16.10;;;8.30;99.90;;;;;;4939473;29;20043;-89
2024/02/11 10:37:38;;;;;;;49.88;16.67;;;8.30;99.90;;;;;;4936335;29;20490;-91
2024/02/11 10:40:08;;;;;;;54.15;17.05;;;8.30;99.90;;;;;;4941349;29;20520;-90
2024/02/11 10:42:35;;;;;;;56.40;17.17;;;8.30;99.90;;;;;;4924088;29;20040;-90
2024/02/11 10:45:03;;;;;;;50.92;16.95;;;8.30;99.90;;;;;;4938801;29;20055;-89
2024/02/11 10:47:30;;;;;;;49.20;16.42;;;8.40;99.90;;;;;;4938171;29;20047;-91
2024/02/11 10:49:57;;;;;;;49.50;16.55;;;8.40;99.90;;;;;;4939191;29;20408;-91
2024/02/11 10:52:30;;;;;;;54.83;17.45;;;8.40;99.90;;;;;;4938349;29;20046;-90
2024/02/11 10:55:02;;;;;;;48.22;16.27;;;8.40;99.90;;;;;;4942815;29;20456;-90
2024/02/11 10:57:34;;;;;;;53.25;17.67;;;8.40;99.90;;;;;;4938683;29;20031;-90
2024/02/11 11:00:02;;;;;;;55.63;17.85;;;8.50;99.90;;;;;;4939027;29;20036;-91
2024/02/11 11:02:31;;;;;;;51.75;17.02;;;8.40;99.90;;;;;;4932898;29;20047;-90
2024/02/11 11:05:03;;;;;;;48.58;17.00;;;8.50;99.90;;;;;;4938496;29;20060;-91
2024/02/11 11:07:36;;;;;;;52.47;17.65;;;8.50;99.90;;;;;;4936494;29;20047;-91
2024/02/11 11:10:09;;;;;;;50.88;16.75;;;8.80;99.90;;;;;;4938675;29;20076;-91
2024/02/11 11:12:39;;;;;;;50.67;17.98;;;8.50;99.90;;;;;;4934862;29;20032;-91
2024/02/11 11:15:08;;;;;;;55.38;17.92;;;8.50;99.90;;;;;;4938722;29;20044;-90
2024/02/11 11:17:36;;;;;;;50.60;17.60;;;8.50;99.90;;;;;;4938202;29;20303;-90
2024/02/11 11:20:12;;;;;;;47.45;16.90;;;8.60;99.90;;;;;;4938592;29;20082;-91
2024/02/11 11:22:40;;;;;;;51.10;17.65;;;8.60;99.90;;;;;;4936263;29;20044;-93
2024/02/11 11:25:14;;;;;;;58.53;18.30;;;9.00;99.90;;;;;;4939030;29;20054;-91
2024/02/11 11:27:40;;;;;;;69.93;17.65;;;8.60;99.90;;;;;;4938125;29;20040;-91
2024/02/11 11:30:09;;;;;;;43.35;17.80;;;8.70;99.90;;;;;;4938282;29;20138;-92
2024/02/11 11:32:43;;;;;;;50.70;17.17;;;8.70;99.90;;;;;;4938122;29;20043;-92
2024/02/11 11:35:12;;;;;;;50.80;17.88;;;8.80;99.90;;;;;;4938320;29;20044;-92
2024/02/11 11:37:38;;;;;;;47.08;17.42;;;9.30;99.90;;;;;;4954244;29;20446;-92
2024/02/11 11:40:07;;;;;;;52.45;19.23;;;9.50;99.90;;;;;;4952968;29;20042;-92
2024/02/11 11:42:34;;;;;;;51.17;17.70;;;8.80;99.90;;;;;;4931544;29;20098;-91
2024/02/11 11:45:08;;;;;;;45.78;18.13;;;8.80;99.90;;;;;;4928033;29;20040;-92
2024/02/11 11:47:35;;;;;;;55.80;19.27;;;8.80;99.90;;;;;;4921830;29;20040;-91
2024/02/11 11:50:06;;;;;;;53.53;18.90;;;8.90;99.90;;;;;;4945094;29;20143;-92
2024/02/11 11:52:33;;;;;;;55.42;18.40;;;8.90;99.90;;;;;;4932958;29;20048;-93
2024/02/11 11:55:03;;;;;;;60.63;20.63;;;8.90;99.90;;;;;;4930566;29;20040;-93
2024/02/11 11:57:30;;;;;;;57.95;19.35;;;9.00;99.90;;;;;;4950299;29;20028;-92
2024/02/11 12:00:00;;;;;;;56.80;20.40;;;9.80;99.90;;;;;;4933460;29;20385;-91
2024/02/11 12:02:29;;;;;;;62.63;20.02;;;9.80;99.90;;;;;;4927089;29;20094;-92
2024/02/11 12:04:56;;;;;;;58.65;19.75;;;9.00;99.90;;;;;;4937668;29;20071;-92
2024/02/11 12:07:24;;;;;;;54.20;20.52;;;9.80;99.90;;;;;;4930440;29;20585;-92
2024/02/11 12:09:51;;;;;;;56.40;20.30;;;9.10;99.90;;;;;;4937640;29;20044;-91
2024/02/11 12:12:20;;;;;;;51.25;18.98;;;9.10;99.90;;;;;;4924571;29;20062;-92
2024/02/11 12:14:47;;;;;;;49.40;19.27;;;9.20;99.90;;;;;;4918997;29;20047;-92
2024/02/11 12:17:13;;;;;;;59.22;20.40;;;9.20;99.90;;;;;;4922142;29;20036;-92
2024/02/11 12:19:41;;;;;;;49.67;20.33;;;9.20;99.90;;;;;;4943641;29;20036;-92
2024/02/11 12:22:08;;;;;;;38.28;17.48;;;9.20;99.90;;;;;;4934602;29;20039;-92
2024/02/11 12:24:38;;;;;;;39.13;18.10;;;9.70;99.90;;;;;;4937768;29;20047;-92
2024/02/11 12:27:05;;;;;;;39.42;17.52;;;9.30;99.90;;;;;;4922700;29;20406;-92
2024/02/11 12:29:32;;;;;;;41.88;18.65;;;9.30;99.90;;;;;;4932069;29;20119;-92
2024/02/11 12:32:03;;;;;;;41.03;17.52;;;9.30;99.90;;;;;;4945654;29;20425;-92
2024/02/11 12:34:29;;;;;;;35.10;16.38;;;9.30;99.90;;;;;;4931217;29;20489;-92
2024/02/11 12:37:03;;;;;;;23.63;12.40;;;9.30;99.90;;;;;;4929553;29;20094;-91
2024/02/11 12:39:31;;;;;;;20.95;11.30;;;9.00;99.90;;;;;;4951871;29;20039;-92
2024/02/11 12:41:57;;;;;;;19.20;9.75;;;9.20;99.90;;;;;;4936812;29;20075;-94